sensor_id;sensor_type;location;lat;lon;timestamp;P1;P2;P0
43479;PMS5003;29067;35.492;-97.520;2024-02-14T00:01:28;1;1;
43479;PMS5003;29067;35.492;-97.520;2024-02-14T00:03:57;1;1;
43479;PMS5003;29067;35.492;-97.520;2024-02-14T00:06:25;1;1;
43479;PMS5003;29067;35.492;-97.520;2024-02-14T00:08:54;1;1;
43479;PMS5003;29067;35.492;-97.520;2024-02-14T00:11:22;1;1;
43479;PMS5003;29067;35.492;-97.520;2024-02-14T00:13:51;1;1;
43479;PMS5003;29067;35.492;-97.520;2024-02-14T00:16:20;1;1;
43479;PMS5003;29067;35.492;-97.520;2024-02-14T00:18:48;1;1;
43479;PMS5003;29067;35.492;-97.520;2024-02-14T00:21:17;0;0;
43479;PMS5003;29067;35.492;-97.520;2024-02-14T00:23:45;1;1;
43479;PMS5003;29067;35.492;-97.520;2024-02-14T00:26:14;2;2;
43479;PMS5003;29067;35.492;-97.520;2024-02-14T00:28:43;2;2;
43479;PMS5003;29067;35.492;-97.520;2024-02-14T00:31:11;1;1;
43479;PMS5003;29067;35.492;-97.520;2024-02-14T00:33:40;2;2;
43479;PMS5003;29067;35.492;-97.520;2024-02-14T00:36:09;3;2;
43479;PMS5003;29067;35.492;-97.520;2024-02-14T00:38:37;1;1;
43479;PMS5003;29067;35.492;-97.520;2024-02-14T00:41:06;2;2;
43479;PMS5003;29067;35.492;-97.520;2024-02-14T00:43:34;2;2;
43479;PMS5003;29067;35.492;-97.520;2024-02-14T00:46:04;3;2;
43479;PMS5003;29067;35.492;-97.520;2024-02-14T00:48:33;2;2;
43479;PMS5003;29067;35.492;-97.520;2024-02-14T00:51:03;3;3;
43479;PMS5003;29067;35.492;-97.520;2024-02-14T00:53:32;3;3;
43479;PMS5003;29067;35.492;-97.520;2024-02-14T00:56:03;2;2;
43479;PMS5003;29067;35.492;-97.520;2024-02-14T00:58:32;2;2;
43479;PMS5003;29067;35.492;-97.520;2024-02-14T01:01:02;5;5;
43479;PMS5003;29067;35.492;-97.520;2024-02-14T01:03:31;3;3;
43479;PMS5003;29067;35.492;-97.520;2024-02-14T01:06:00;4;4;
43479;PMS5003;29067;35.492;-97.520;2024-02-14T01:08:31;13;13;
43479;PMS5003;29067;35.492;-97.520;2024-02-14T01:11:00;15;14;
43479;PMS5003;29067;35.492;-97.520;2024-02-14T01:13:31;15;14;
43479;PMS5003;29067;35.492;-97.520;2024-02-14T01:16:03;19;18;
43479;PMS5003;29067;35.492;-97.520;2024-02-14T01:18:36;37;37;
43479;PMS5003;29067;35.492;-97.520;2024-02-14T01:21:08;19;18;
43479;PMS5003;29067;35.492;-97.520;2024-02-14T01:23:41;14;14;
43479;PMS5003;29067;35.492;-97.520;2024-02-14T01:26:10;17;16;
43479;PMS5003;29067;35.492;-97.520;2024-02-14T01:28:41;48;48;
43479;PMS5003;29067;35.492;-97.520;2024-02-14T01:31:10;2;2;
43479;PMS5003;29067;35.492;-97.520;2024-02-14T01:33:39;2;2;
43479;PMS5003;29067;35.492;-97.520;2024-02-14T01:36:12;2;1;
43479;PMS5003;29067;35.492;-97.520;2024-02-14T01:38:44;2;1;
43479;PMS5003;29067;35.492;-97.520;2024-02-14T01:41:14;1;1;
43479;PMS5003;29067;35.492;-97.520;2024-02-14T01:43:45;1;1;
43479;PMS5003;29067;35.492;-97.520;2024-02-14T01:46:17;2;2;
43479;PMS5003;29067;35.492;-97.520;2024-02-14T01:48:52;2;2;
43479;PMS5003;29067;35.492;-97.520;2024-02-14T01:51:25;2;2;
43479;PMS5003;29067;35.492;-97.520;2024-02-14T01:53:57;1;1;
43479;PMS5003;29067;35.492;-97.520;2024-02-14T01:56:28;2;2;
43479;PMS5003;29067;35.492;-97.520;2024-02-14T01:58:59;2;2;
43479;PMS5003;29067;35.492;-97.520;2024-02-14T02:01:33;2;2;
43479;PMS5003;29067;35.492;-97.520;2024-02-14T02:04:12;2;2;
43479;PMS5003;29067;35.492;-97.520;2024-02-14T02:06:43;1;1;
43479;PMS5003;29067;35.492;-97.520;2024-02-14T02:09:13;2;2;
43479;PMS5003;29067;35.492;-97.520;2024-02-14T02:11:44;2;2;
43479;PMS5003;29067;35.492;-97.520;2024-02-14T02:14:15;1;1;
43479;PMS5003;29067;35.492;-97.520;2024-02-14T02:16:45;2;2;
43479;PMS5003;29067;35.492;-97.520;2024-02-14T02:19:15;1;1;
43479;PMS5003;29067;35.492;-97.520;2024-02-14T02:21:45;1;1;
43479;PMS5003;29067;35.492;-97.520;2024-02-14T02:24:14;1;1;
43479;PMS5003;29067;35.492;-97.520;2024-02-14T02:26:44;2;2;
43479;PMS5003;29067;35.492;-97.520;2024-02-14T02:29:20;2;2;
43479;PMS5003;29067;35.492;-97.520;2024-02-14T02:31:50;2;2;
43479;PMS5003;29067;35.492;-97.520;2024-02-14T02:34:22;3;3;
43479;PMS5003;29067;35.492;-97.520;2024-02-14T02:36:52;2;2;
43479;PMS5003;29067;35.492;-97.520;2024-02-14T02:39:21;2;2;
43479;PMS5003;29067;35.492;-97.520;2024-02-14T02:41:49;2;2;
43479;PMS5003;29067;35.492;-97.520;2024-02-14T02:44:21;2;2;
43479;PMS5003;29067;35.492;-97.520;2024-02-14T02:46:49;2;2;
43479;PMS5003;29067;35.492;-97.520;2024-02-14T02:49:20;2;2;
43479;PMS5003;29067;35.492;-97.520;2024-02-14T02:51:49;2;2;
43479;PMS5003;29067;35.492;-97.520;2024-02-14T02:54:18;1;1;
43479;PMS5003;29067;35.492;-97.520;2024-02-14T02:56:50;2;2;
43479;PMS5003;29067;35.492;-97.520;2024-02-14T02:59:21;3;2;
43479;PMS5003;29067;35.492;-97.520;2024-02-14T03:01:55;2;2;
43479;PMS5003;29067;35.492;-97.520;2024-02-14T03:04:25;3;3;
43479;PMS5003;29067;35.492;-97.520;2024-02-14T03:06:55;2;2;
43479;PMS5003;29067;35.492;-97.520;2024-02-14T03:09:26;2;2;
43479;PMS5003;29067;35.492;-97.520;2024-02-14T03:11:55;2;2;
43479;PMS5003;29067;35.492;-97.520;2024-02-14T03:14:28;2;2;
43479;PMS5003;29067;35.492;-97.520;2024-02-14T03:16:58;2;2;
43479;PMS5003;29067;35.492;-97.520;2024-02-14T03:19:30;2;2;
43479;PMS5003;29067;35.492;-97.520;2024-02-14T03:21:59;2;2;
43479;PMS5003;29067;35.492;-97.520;2024-02-14T03:24:30;2;2;
43479;PMS5003;29067;35.492;-97.520;2024-02-14T03:26:59;1;1;
43479;PMS5003;29067;35.492;-97.520;2024-02-14T03:29:28;2;2;
43479;PMS5003;29067;35.492;-97.520;2024-02-14T03:31:58;1;1;
43479;PMS5003;29067;35.492;-97.520;2024-02-14T03:34:27;2;2;
43479;PMS5003;29067;35.492;-97.520;2024-02-14T03:37:00;3;2;
43479;PMS5003;29067;35.492;-97.520;2024-02-14T03:39:29;2;2;
43479;PMS5003;29067;35.492;-97.520;2024-02-14T03:41:58;2;2;
43479;PMS5003;29067;35.492;-97.520;2024-02-14T03:44:27;2;2;
43479;PMS5003;29067;35.492;-97.520;2024-02-14T03:46:56;2;2;
43479;PMS5003;29067;35.492;-97.520;2024-02-14T03:49:25;6;6;
43479;PMS5003;29067;35.492;-97.520;2024-02-14T03:51:54;3;3;
43479;PMS5003;29067;35.492;-97.520;2024-02-14T03:54:23;5;4;
43479;PMS5003;29067;35.492;-97.520;2024-02-14T03:56:51;3;3;
43479;PMS5003;29067;35.492;-97.520;2024-02-14T03:59:20;2;2;
43479;PMS5003;29067;35.492;-97.520;2024-02-14T04:01:49;1;1;
43479;PMS5003;29067;35.492;-97.520;2024-02-14T04:04:19;3;3;
43479;PMS5003;29067;35.492;-97.520;2024-02-14T04:06:47;2;2;
43479;PMS5003;29067;35.492;-97.520;2024-02-14T04:09:16;2;2;
43479;PMS5003;29067;35.492;-97.520;2024-02-14T04:11:45;3;3;
43479;PMS5003;29067;35.492;-97.520;2024-02-14T04:14:13;2;2;
43479;PMS5003;29067;35.492;-97.520;2024-02-14T04:16:42;2;2;
43479;PMS5003;29067;35.492;-97.520;2024-02-14T04:19:11;1;1;
43479;PMS5003;29067;35.492;-97.520;2024-02-14T04:21:39;2;2;
43479;PMS5003;29067;35.492;-97.520;2024-02-14T04:24:07;2;2;
43479;PMS5003;29067;35.492;-97.520;2024-02-14T04:26:36;2;2;
43479;PMS5003;29067;35.492;-97.520;2024-02-14T04:29:03;2;2;
43479;PMS5003;29067;35.492;-97.520;2024-02-14T04:31:31;2;2;
43479;PMS5003;29067;35.492;-97.520;2024-02-14T04:33:59;4;3;
43479;PMS5003;29067;35.492;-97.520;2024-02-14T04:36:27;4;3;
43479;PMS5003;29067;35.492;-97.520;2024-02-14T04:38:56;3;3;
43479;PMS5003;29067;35.492;-97.520;2024-02-14T04:41:24;3;3;
43479;PMS5003;29067;35.492;-97.520;2024-02-14T04:43:52;3;3;
43479;PMS5003;29067;35.492;-97.520;2024-02-14T04:46:20;3;3;
43479;PMS5003;29067;35.492;-97.520;2024-02-14T04:48:48;3;2;
43479;PMS5003;29067;35.492;-97.520;2024-02-14T04:51:16;2;2;
43479;PMS5003;29067;35.492;-97.520;2024-02-14T04:53:44;3;3;
43479;PMS5003;29067;35.492;-97.520;2024-02-14T04:56:12;3;3;
43479;PMS5003;29067;35.492;-97.520;2024-02-14T04:58:39;3;3;
43479;PMS5003;29067;35.492;-97.520;2024-02-14T05:01:07;4;4;
43479;PMS5003;29067;35.492;-97.520;2024-02-14T05:03:35;4;4;
43479;PMS5003;29067;35.492;-97.520;2024-02-14T05:06:03;4;4;
43479;PMS5003;29067;35.492;-97.520;2024-02-14T05:08:32;4;4;
43479;PMS5003;29067;35.492;-97.520;2024-02-14T05:11:00;3;3;
43479;PMS5003;29067;35.492;-97.520;2024-02-14T05:13:28;4;4;
43479;PMS5003;29067;35.492;-97.520;2024-02-14T05:15:55;2;2;
43479;PMS5003;29067;35.492;-97.520;2024-02-14T05:18:23;3;3;
43479;PMS5003;29067;35.492;-97.520;2024-02-14T05:20:51;4;3;
43479;PMS5003;29067;35.492;-97.520;2024-02-14T05:23:19;4;4;
43479;PMS5003;29067;35.492;-97.520;2024-02-14T05:25:47;4;4;
43479;PMS5003;29067;35.492;-97.520;2024-02-14T05:28:15;5;4;
43479;PMS5003;29067;35.492;-97.520;2024-02-14T05:30:43;4;4;
43479;PMS5003;29067;35.492;-97.520;2024-02-14T05:33:11;5;5;
43479;PMS5003;29067;35.492;-97.520;2024-02-14T05:35:38;5;4;
43479;PMS5003;29067;35.492;-97.520;2024-02-14T05:38:07;6;6;
43479;PMS5003;29067;35.492;-97.520;2024-02-14T05:40:34;9;9;
43479;PMS5003;29067;35.492;-97.520;2024-02-14T05:43:02;12;11;
43479;PMS5003;29067;35.492;-97.520;2024-02-14T05:45:30;15;15;
43479;PMS5003;29067;35.492;-97.520;2024-02-14T05:47:58;21;21;
43479;PMS5003;29067;35.492;-97.520;2024-02-14T05:50:26;23;21;
43479;PMS5003;29067;35.492;-97.520;2024-02-14T05:52:55;24;22;
43479;PMS5003;29067;35.492;-97.520;2024-02-14T05:55:23;24;22;
43479;PMS5003;29067;35.492;-97.520;2024-02-14T05:57:51;26;25;
43479;PMS5003;29067;35.492;-97.520;2024-02-14T06:00:19;30;30;
43479;PMS5003;29067;35.492;-97.520;2024-02-14T06:02:47;31;31;
43479;PMS5003;29067;35.492;-97.520;2024-02-14T06:05:16;42;40;
43479;PMS5003;29067;35.492;-97.520;2024-02-14T06:07:44;49;47;
43479;PMS5003;29067;35.492;-97.520;2024-02-14T06:10:11;30;29;
43479;PMS5003;29067;35.492;-97.520;2024-02-14T06:12:39;30;30;
43479;PMS5003;29067;35.492;-97.520;2024-02-14T06:15:07;30;30;
43479;PMS5003;29067;35.492;-97.520;2024-02-14T06:17:35;36;36;
43479;PMS5003;29067;35.492;-97.520;2024-02-14T06:20:04;57;56;
43479;PMS5003;29067;35.492;-97.520;2024-02-14T06:22:32;57;57;
43479;PMS5003;29067;35.492;-97.520;2024-02-14T06:25:00;60;60;
43479;PMS5003;29067;35.492;-97.520;2024-02-14T06:27:28;81;81;
43479;PMS5003;29067;35.492;-97.520;2024-02-14T06:29:56;36;35;
43479;PMS5003;29067;35.492;-97.520;2024-02-14T06:32:24;50;50;
43479;PMS5003;29067;35.492;-97.520;2024-02-14T06:34:52;116;115;
43479;PMS5003;29067;35.492;-97.520;2024-02-14T06:37:21;97;97;
43479;PMS5003;29067;35.492;-97.520;2024-02-14T06:39:49;92;92;
43479;PMS5003;29067;35.492;-97.520;2024-02-14T06:42:18;64;63;
43479;PMS5003;29067;35.492;-97.520;2024-02-14T06:44:45;31;31;
43479;PMS5003;29067;35.492;-97.520;2024-02-14T06:47:13;64;63;
43479;PMS5003;29067;35.492;-97.520;2024-02-14T06:49:41;78;77;
43479;PMS5003;29067;35.492;-97.520;2024-02-14T06:52:08;34;30;
43479;PMS5003;29067;35.492;-97.520;2024-02-14T06:54:37;25;22;
43479;PMS5003;29067;35.492;-97.520;2024-02-14T06:57:05;75;73;
43479;PMS5003;29067;35.492;-97.520;2024-02-14T06:59:33;89;89;
43479;PMS5003;29067;35.492;-97.520;2024-02-14T07:02:01;119;119;
43479;PMS5003;29067;35.492;-97.520;2024-02-14T07:04:29;49;48;
43479;PMS5003;29067;35.492;-97.520;2024-02-14T07:06:57;23;18;
43479;PMS5003;29067;35.492;-97.520;2024-02-14T07:09:25;43;43;
43479;PMS5003;29067;35.492;-97.520;2024-02-14T07:11:53;22;22;
43479;PMS5003;29067;35.492;-97.520;2024-02-14T07:14:21;111;111;
43479;PMS5003;29067;35.492;-97.520;2024-02-14T07:16:49;21;19;
43479;PMS5003;29067;35.492;-97.520;2024-02-14T07:19:17;38;36;
43479;PMS5003;29067;35.492;-97.520;2024-02-14T07:21:45;25;21;
43479;PMS5003;29067;35.492;-97.520;2024-02-14T07:24:13;34;28;
43479;PMS5003;29067;35.492;-97.520;2024-02-14T07:26:42;18;15;
43479;PMS5003;29067;35.492;-97.520;2024-02-14T07:29:09;30;23;
43479;PMS5003;29067;35.492;-97.520;2024-02-14T07:31:37;29;23;
43479;PMS5003;29067;35.492;-97.520;2024-02-14T07:34:05;28;23;
43479;PMS5003;29067;35.492;-97.520;2024-02-14T07:36:33;51;49;
43479;PMS5003;29067;35.492;-97.520;2024-02-14T07:39:01;61;58;
43479;PMS5003;29067;35.492;-97.520;2024-02-14T07:41:29;29;25;
43479;PMS5003;29067;35.492;-97.520;2024-02-14T07:43:57;28;22;
43479;PMS5003;29067;35.492;-97.520;2024-02-14T07:46:25;27;20;
43479;PMS5003;29067;35.492;-97.520;2024-02-14T07:48:53;49;47;
43479;PMS5003;29067;35.492;-97.520;2024-02-14T07:51:21;27;24;
43479;PMS5003;29067;35.492;-97.520;2024-02-14T07:53:49;27;23;
43479;PMS5003;29067;35.492;-97.520;2024-02-14T07:56:22;31;25;
43479;PMS5003;29067;35.492;-97.520;2024-02-14T07:58:51;43;41;
43479;PMS5003;29067;35.492;-97.520;2024-02-14T08:01:19;27;23;
43479;PMS5003;29067;35.492;-97.520;2024-02-14T08:03:46;56;55;
43479;PMS5003;29067;35.492;-97.520;2024-02-14T08:06:14;30;28;
43479;PMS5003;29067;35.492;-97.520;2024-02-14T08:08:43;57;56;
43479;PMS5003;29067;35.492;-97.520;2024-02-14T08:11:11;28;22;
43479;PMS5003;29067;35.492;-97.520;2024-02-14T08:13:38;29;26;
43479;PMS5003;29067;35.492;-97.520;2024-02-14T08:16:06;10;7;
43479;PMS5003;29067;35.492;-97.520;2024-02-14T08:18:34;24;21;
43479;PMS5003;29067;35.492;-97.520;2024-02-14T08:21:03;28;24;
43479;PMS5003;29067;35.492;-97.520;2024-02-14T08:23:32;38;34;
43479;PMS5003;29067;35.492;-97.520;2024-02-14T08:26:00;35;32;
43479;PMS5003;29067;35.492;-97.520;2024-02-14T08:28:28;27;24;
43479;PMS5003;29067;35.492;-97.520;2024-02-14T08:30:56;28;25;
43479;PMS5003;29067;35.492;-97.520;2024-02-14T08:33:25;17;15;
43479;PMS5003;29067;35.492;-97.520;2024-02-14T08:35:52;32;26;
43479;PMS5003;29067;35.492;-97.520;2024-02-14T08:38:20;19;15;
43479;PMS5003;29067;35.492;-97.520;2024-02-14T08:40:48;19;15;
43479;PMS5003;29067;35.492;-97.520;2024-02-14T08:43:17;29;24;
43479;PMS5003;29067;35.492;-97.520;2024-02-14T08:45:45;30;28;
43479;PMS5003;29067;35.492;-97.520;2024-02-14T08:48:13;24;20;
43479;PMS5003;29067;35.492;-97.520;2024-02-14T08:50:41;26;20;
43479;PMS5003;29067;35.492;-97.520;2024-02-14T08:53:09;28;22;
43479;PMS5003;29067;35.492;-97.520;2024-02-14T08:55:37;28;23;
43479;PMS5003;29067;35.492;-97.520;2024-02-14T08:58:05;34;30;
43479;PMS5003;29067;35.492;-97.520;2024-02-14T09:00:33;36;32;
43479;PMS5003;29067;35.492;-97.520;2024-02-14T09:03:02;22;19;
43479;PMS5003;29067;35.492;-97.520;2024-02-14T09:05:31;20;15;
43479;PMS5003;29067;35.492;-97.520;2024-02-14T09:07:59;28;25;
43479;PMS5003;29067;35.492;-97.520;2024-02-14T09:10:27;31;27;
43479;PMS5003;29067;35.492;-97.520;2024-02-14T09:12:55;28;23;
43479;PMS5003;29067;35.492;-97.520;2024-02-14T09:15:23;28;25;
43479;PMS5003;29067;35.492;-97.520;2024-02-14T09:17:51;28;21;
43479;PMS5003;29067;35.492;-97.520;2024-02-14T09:20:19;27;23;
43479;PMS5003;29067;35.492;-97.520;2024-02-14T09:22:46;27;22;
43479;PMS5003;29067;35.492;-97.520;2024-02-14T09:25:14;35;32;
43479;PMS5003;29067;35.492;-97.520;2024-02-14T09:27:43;28;25;
43479;PMS5003;29067;35.492;-97.520;2024-02-14T09:30:11;26;21;
43479;PMS5003;29067;35.492;-97.520;2024-02-14T09:32:39;21;17;
43479;PMS5003;29067;35.492;-97.520;2024-02-14T09:35:07;23;20;
43479;PMS5003;29067;35.492;-97.520;2024-02-14T09:37:35;20;16;
43479;PMS5003;29067;35.492;-97.520;2024-02-14T09:40:02;22;19;
43479;PMS5003;29067;35.492;-97.520;2024-02-14T09:42:34;25;21;
43479;PMS5003;29067;35.492;-97.520;2024-02-14T09:45:06;25;21;
43479;PMS5003;29067;35.492;-97.520;2024-02-14T09:47:34;21;17;
43479;PMS5003;29067;35.492;-97.520;2024-02-14T09:50:04;31;26;
43479;PMS5003;29067;35.492;-97.520;2024-02-14T09:52:34;36;30;
43479;PMS5003;29067;35.492;-97.520;2024-02-14T09:55:05;44;40;
43479;PMS5003;29067;35.492;-97.520;2024-02-14T09:57:33;85;80;
43479;PMS5003;29067;35.492;-97.520;2024-02-14T10:00:03;92;88;
43479;PMS5003;29067;35.492;-97.520;2024-02-14T10:02:32;102;97;
43479;PMS5003;29067;35.492;-97.520;2024-02-14T10:05:00;7;7;
43479;PMS5003;29067;35.492;-97.520;2024-02-14T10:07:28;7;7;
43479;PMS5003;29067;35.492;-97.520;2024-02-14T10:10:05;8;7;
43479;PMS5003;29067;35.492;-97.520;2024-02-14T10:12:33;7;6;
43479;PMS5003;29067;35.492;-97.520;2024-02-14T10:15:01;9;6;
43479;PMS5003;29067;35.492;-97.520;2024-02-14T10:17:29;6;6;
43479;PMS5003;29067;35.492;-97.520;2024-02-14T10:20:00;7;7;
43479;PMS5003;29067;35.492;-97.520;2024-02-14T10:22:32;7;7;
43479;PMS5003;29067;35.492;-97.520;2024-02-14T10:25:01;8;7;
43479;PMS5003;29067;35.492;-97.520;2024-02-14T10:27:29;7;7;
43479;PMS5003;29067;35.492;-97.520;2024-02-14T10:29:57;7;7;
43479;PMS5003;29067;35.492;-97.520;2024-02-14T10:32:26;6;6;
43479;PMS5003;29067;35.492;-97.520;2024-02-14T10:34:54;9;9;
43479;PMS5003;29067;35.492;-97.520;2024-02-14T10:37:22;6;4;
43479;PMS5003;29067;35.492;-97.520;2024-02-14T10:39:51;7;7;
43479;PMS5003;29067;35.492;-97.520;2024-02-14T10:42:20;7;7;
43479;PMS5003;29067;35.492;-97.520;2024-02-14T10:44:48;8;7;
43479;PMS5003;29067;35.492;-97.520;2024-02-14T10:47:18;6;6;
43479;PMS5003;29067;35.492;-97.520;2024-02-14T10:49:47;7;6;
43479;PMS5003;29067;35.492;-97.520;2024-02-14T10:52:17;7;6;
43479;PMS5003;29067;35.492;-97.520;2024-02-14T10:54:47;6;6;
43479;PMS5003;29067;35.492;-97.520;2024-02-14T10:57:22;6;6;
43479;PMS5003;29067;35.492;-97.520;2024-02-14T10:59:52;8;6;
43479;PMS5003;29067;35.492;-97.520;2024-02-14T11:02:22;7;7;
43479;PMS5003;29067;35.492;-97.520;2024-02-14T11:04:51;7;7;
43479;PMS5003;29067;35.492;-97.520;2024-02-14T11:07:20;6;6;
43479;PMS5003;29067;35.492;-97.520;2024-02-14T11:09:48;9;8;
43479;PMS5003;29067;35.492;-97.520;2024-02-14T11:12:27;7;7;
43479;PMS5003;29067;35.492;-97.520;2024-02-14T11:15:00;9;9;
43479;PMS5003;29067;35.492;-97.520;2024-02-14T11:17:28;7;6;
43479;PMS5003;29067;35.492;-97.520;2024-02-14T11:19:56;7;7;
43479;PMS5003;29067;35.492;-97.520;2024-02-14T11:22:24;6;6;
43479;PMS5003;29067;35.492;-97.520;2024-02-14T11:24:52;8;8;
43479;PMS5003;29067;35.492;-97.520;2024-02-14T11:27:20;9;9;
43479;PMS5003;29067;35.492;-97.520;2024-02-14T11:29:53;8;7;
43479;PMS5003;29067;35.492;-97.520;2024-02-14T11:32:22;8;7;
43479;PMS5003;29067;35.492;-97.520;2024-02-14T11:34:53;7;7;
43479;PMS5003;29067;35.492;-97.520;2024-02-14T11:37:27;7;7;
43479;PMS5003;29067;35.492;-97.520;2024-02-14T11:39:55;9;7;
43479;PMS5003;29067;35.492;-97.520;2024-02-14T11:42:23;6;6;
43479;PMS5003;29067;35.492;-97.520;2024-02-14T11:44:51;7;7;
43479;PMS5003;29067;35.492;-97.520;2024-02-14T11:47:20;8;8;
43479;PMS5003;29067;35.492;-97.520;2024-02-14T11:49:48;8;6;
43479;PMS5003;29067;35.492;-97.520;2024-02-14T11:52:16;7;6;
43479;PMS5003;29067;35.492;-97.520;2024-02-14T11:54:46;9;7;
43479;PMS5003;29067;35.492;-97.520;2024-02-14T11:57:16;7;7;
43479;PMS5003;29067;35.492;-97.520;2024-02-14T11:59:44;6;6;
43479;PMS5003;29067;35.492;-97.520;2024-02-14T12:03:00;7;6;
43479;PMS5003;29067;35.492;-97.520;2024-02-14T12:05:28;8;7;
43479;PMS5003;29067;35.492;-97.520;2024-02-14T12:07:56;6;6;
43479;PMS5003;29067;35.492;-97.520;2024-02-14T12:10:24;8;8;
43479;PMS5003;29067;35.492;-97.520;2024-02-14T12:12:53;8;7;
43479;PMS5003;29067;35.492;-97.520;2024-02-14T12:15:21;7;6;
43479;PMS5003;29067;35.492;-97.520;2024-02-14T12:17:49;7;6;
43479;PMS5003;29067;35.492;-97.520;2024-02-14T12:20:21;8;7;
43479;PMS5003;29067;35.492;-97.520;2024-02-14T12:22:50;8;7;
43479;PMS5003;29067;35.492;-97.520;2024-02-14T12:25:17;7;7;
43479;PMS5003;29067;35.492;-97.520;2024-02-14T12:27:50;4;4;
43479;PMS5003;29067;35.492;-97.520;2024-02-14T12:30:19;7;7;
43479;PMS5003;29067;35.492;-97.520;2024-02-14T12:32:46;7;7;
43479;PMS5003;29067;35.492;-97.520;2024-02-14T12:35:25;6;6;
43479;PMS5003;29067;35.492;-97.520;2024-02-14T12:37:53;8;7;
43479;PMS5003;29067;35.492;-97.520;2024-02-14T12:40:21;8;7;
43479;PMS5003;29067;35.492;-97.520;2024-02-14T12:42:51;8;8;
43479;PMS5003;29067;35.492;-97.520;2024-02-14T12:45:19;9;9;
43479;PMS5003;29067;35.492;-97.520;2024-02-14T12:47:47;9;8;
43479;PMS5003;29067;35.492;-97.520;2024-02-14T12:50:15;9;8;
43479;PMS5003;29067;35.492;-97.520;2024-02-14T12:52:43;8;7;
43479;PMS5003;29067;35.492;-97.520;2024-02-14T12:55:11;8;7;
43479;PMS5003;29067;35.492;-97.520;2024-02-14T12:57:39;7;7;
43479;PMS5003;29067;35.492;-97.520;2024-02-14T13:00:07;11;9;
43479;PMS5003;29067;35.492;-97.520;2024-02-14T13:02:36;9;8;
43479;PMS5003;29067;35.492;-97.520;2024-02-14T13:05:04;10;9;
43479;PMS5003;29067;35.492;-97.520;2024-02-14T13:07:33;9;9;
43479;PMS5003;29067;35.492;-97.520;2024-02-14T13:10:02;8;8;
43479;PMS5003;29067;35.492;-97.520;2024-02-14T13:12:29;10;9;
43479;PMS5003;29067;35.492;-97.520;2024-02-14T13:14:57;15;9;
43479;PMS5003;29067;35.492;-97.520;2024-02-14T13:17:25;8;8;
43479;PMS5003;29067;35.492;-97.520;2024-02-14T13:19:53;7;7;
43479;PMS5003;29067;35.492;-97.520;2024-02-14T13:22:21;9;9;
43479;PMS5003;29067;35.492;-97.520;2024-02-14T13:24:49;7;7;
43479;PMS5003;29067;35.492;-97.520;2024-02-14T13:27:17;8;7;
43479;PMS5003;29067;35.492;-97.520;2024-02-14T13:29:45;7;7;
43479;PMS5003;29067;35.492;-97.520;2024-02-14T13:32:13;11;9;
43479;PMS5003;29067;35.492;-97.520;2024-02-14T13:34:41;8;8;
43479;PMS5003;29067;35.492;-97.520;2024-02-14T13:37:09;7;7;
43479;PMS5003;29067;35.492;-97.520;2024-02-14T13:39:37;7;7;
43479;PMS5003;29067;35.492;-97.520;2024-02-14T13:42:05;8;8;
43479;PMS5003;29067;35.492;-97.520;2024-02-14T13:44:33;8;8;
43479;PMS5003;29067;35.492;-97.520;2024-02-14T13:47:01;8;8;
43479;PMS5003;29067;35.492;-97.520;2024-02-14T13:49:29;9;8;
43479;PMS5003;29067;35.492;-97.520;2024-02-14T13:51:57;10;9;
43479;PMS5003;29067;35.492;-97.520;2024-02-14T13:54:25;7;7;
43479;PMS5003;29067;35.492;-97.520;2024-02-14T13:56:53;8;8;
43479;PMS5003;29067;35.492;-97.520;2024-02-14T13:59:21;9;8;
43479;PMS5003;29067;35.492;-97.520;2024-02-14T14:01:49;8;8;
43479;PMS5003;29067;35.492;-97.520;2024-02-14T14:04:17;8;7;
43479;PMS5003;29067;35.492;-97.520;2024-02-14T14:06:45;8;8;
43479;PMS5003;29067;35.492;-97.520;2024-02-14T14:09:13;8;8;
43479;PMS5003;29067;35.492;-97.520;2024-02-14T14:11:41;8;7;
43479;PMS5003;29067;35.492;-97.520;2024-02-14T14:14:09;9;9;
43479;PMS5003;29067;35.492;-97.520;2024-02-14T14:16:37;7;7;
43479;PMS5003;29067;35.492;-97.520;2024-02-14T14:19:05;8;8;
43479;PMS5003;29067;35.492;-97.520;2024-02-14T14:21:33;15;10;
43479;PMS5003;29067;35.492;-97.520;2024-02-14T14:24:01;9;7;
43479;PMS5003;29067;35.492;-97.520;2024-02-14T14:26:29;7;7;
43479;PMS5003;29067;35.492;-97.520;2024-02-14T14:28:57;8;7;
43479;PMS5003;29067;35.492;-97.520;2024-02-14T14:31:25;11;10;
43479;PMS5003;29067;35.492;-97.520;2024-02-14T14:33:53;9;8;
43479;PMS5003;29067;35.492;-97.520;2024-02-14T14:36:21;7;7;
43479;PMS5003;29067;35.492;-97.520;2024-02-14T14:38:49;24;23;
43479;PMS5003;29067;35.492;-97.520;2024-02-14T14:41:17;9;9;
43479;PMS5003;29067;35.492;-97.520;2024-02-14T14:43:45;6;6;
43479;PMS5003;29067;35.492;-97.520;2024-02-14T14:46:13;7;7;
43479;PMS5003;29067;35.492;-97.520;2024-02-14T14:48:40;6;6;
43479;PMS5003;29067;35.492;-97.520;2024-02-14T14:51:09;6;6;
43479;PMS5003;29067;35.492;-97.520;2024-02-14T14:53:37;6;6;
43479;PMS5003;29067;35.492;-97.520;2024-02-14T14:56:05;8;8;
43479;PMS5003;29067;35.492;-97.520;2024-02-14T14:58:34;6;6;
43479;PMS5003;29067;35.492;-97.520;2024-02-14T15:01:01;5;5;
43479;PMS5003;29067;35.492;-97.520;2024-02-14T15:03:29;7;5;
43479;PMS5003;29067;35.492;-97.520;2024-02-14T15:05:57;5;5;
43479;PMS5003;29067;35.492;-97.520;2024-02-14T15:08:25;6;6;
43479;PMS5003;29067;35.492;-97.520;2024-02-14T15:10:53;6;6;
43479;PMS5003;29067;35.492;-97.520;2024-02-14T15:13:21;5;5;
43479;PMS5003;29067;35.492;-97.520;2024-02-14T15:15:49;6;5;
43479;PMS5003;29067;35.492;-97.520;2024-02-14T15:18:17;4;4;
43479;PMS5003;29067;35.492;-97.520;2024-02-14T15:20:45;6;6;
43479;PMS5003;29067;35.492;-97.520;2024-02-14T15:23:13;7;6;
43479;PMS5003;29067;35.492;-97.520;2024-02-14T15:25:41;5;5;
43479;PMS5003;29067;35.492;-97.520;2024-02-14T15:28:09;6;6;
43479;PMS5003;29067;35.492;-97.520;2024-02-14T15:30:37;4;4;
43479;PMS5003;29067;35.492;-97.520;2024-02-14T15:33:06;5;5;
43479;PMS5003;29067;35.492;-97.520;2024-02-14T15:35:35;5;5;
43479;PMS5003;29067;35.492;-97.520;2024-02-14T15:38:02;4;4;
43479;PMS5003;29067;35.492;-97.520;2024-02-14T15:40:30;5;4;
43479;PMS5003;29067;35.492;-97.520;2024-02-14T15:42:58;6;5;
43479;PMS5003;29067;35.492;-97.520;2024-02-14T15:45:26;6;5;
43479;PMS5003;29067;35.492;-97.520;2024-02-14T15:47:54;5;5;
43479;PMS5003;29067;35.492;-97.520;2024-02-14T15:50:21;5;4;
43479;PMS5003;29067;35.492;-97.520;2024-02-14T15:52:49;6;6;
43479;PMS5003;29067;35.492;-97.520;2024-02-14T15:55:17;7;5;
43479;PMS5003;29067;35.492;-97.520;2024-02-14T15:57:45;5;4;
43479;PMS5003;29067;35.492;-97.520;2024-02-14T16:00:13;4;4;
43479;PMS5003;29067;35.492;-97.520;2024-02-14T16:02:41;3;3;
43479;PMS5003;29067;35.492;-97.520;2024-02-14T16:05:09;2;2;
43479;PMS5003;29067;35.492;-97.520;2024-02-14T16:07:37;4;4;
43479;PMS5003;29067;35.492;-97.520;2024-02-14T16:10:06;3;3;
43479;PMS5003;29067;35.492;-97.520;2024-02-14T16:12:34;3;3;
43479;PMS5003;29067;35.492;-97.520;2024-02-14T16:15:02;4;4;
43479;PMS5003;29067;35.492;-97.520;2024-02-14T16:17:31;3;3;